createdAt,value
2022-11-15T00:02:18.777Z,98595.47
2022-11-15T00:05:05.618Z,98591.84
2022-11-15T00:07:56.133Z,98595.91
2022-11-15T00:10:43.452Z,98591.63
2022-11-15T00:13:31.316Z,98599.25
2022-11-15T00:16:17.769Z,98599.13
2022-11-15T00:19:04.514Z,98598.94
2022-11-15T00:21:50.499Z,98601.44
2022-11-15T00:24:36.956Z,98603.13
2022-11-15T00:27:23.729Z,98598.94
2022-11-15T00:30:10.756Z,98601.00
2022-11-15T00:32:57.448Z,98595.63
2022-11-15T00:35:43.701Z,98594.16
2022-11-15T00:38:38.752Z,98590.97
2022-11-15T00:41:25.195Z,98588.78
2022-11-15T00:44:12.062Z,98579.78
2022-11-15T00:46:58.424Z,98572.78
2022-11-15T00:49:44.447Z,98581.06
2022-11-15T00:52:30.715Z,98578.22
2022-11-15T00:55:19.007Z,98572.63
2022-11-15T00:58:05.618Z,98572.63
2022-11-15T01:00:51.921Z,98567.25
2022-11-15T01:03:41.206Z,98562.94
2022-11-15T01:06:27.343Z,98561.53
2022-11-15T01:09:14.863Z,98565.09
2022-11-15T01:12:01.082Z,98556.47
2022-11-15T01:14:47.195Z,98560.97
2022-11-15T01:17:33.438Z,98553.84
2022-11-15T01:20:19.856Z,98553.97
2022-11-15T01:23:06.106Z,98555.00
2022-11-15T01:25:52.611Z,98551.69
2022-11-15T01:28:41.227Z,98545.78
2022-11-15T01:31:27.832Z,98548.47
2022-11-15T01:34:16.039Z,98538.16
2022-11-15T01:37:02.485Z,98540.97
2022-11-15T01:39:48.505Z,98543.13
2022-11-15T01:42:35.257Z,98541.97
2022-11-15T01:45:21.408Z,98533.03
2022-11-15T01:48:11.725Z,98538.69
2022-11-15T01:51:00.156Z,98541.66
2022-11-15T01:53:48.960Z,98541.78
2022-11-15T01:56:44.076Z,98537.34
2022-11-15T01:59:31.160Z,98528.25
2022-11-15T02:02:17.734Z,98525.66
2022-11-15T02:05:04.539Z,98527.69
2022-11-15T02:07:54.972Z,98520.63
2022-11-15T02:10:41.642Z,98521.63
2022-11-15T02:13:29.026Z,98529.00
2022-11-15T02:16:41.140Z,98516.53
2022-11-15T02:19:33.228Z,98511.19
2022-11-15T02:22:40.822Z,98508.69
2022-11-15T02:26:10.282Z,98510.28
2022-11-15T02:29:31.813Z,98508.50
2022-11-15T02:32:35.785Z,98502.28
2022-11-15T02:35:37.216Z,98498.81
2022-11-15T02:38:50.923Z,98501.78
2022-11-15T02:41:45.838Z,98498.53
2022-11-15T02:44:44.849Z,98497.56
2022-11-15T02:47:38.976Z,98490.56
2022-11-15T02:50:56.777Z,98492.66
2022-11-15T02:53:43.132Z,98491.41
2022-11-15T02:56:29.794Z,98488.59
2022-11-15T02:59:22.843Z,98485.34
2022-11-15T03:02:39.977Z,98478.47
2022-11-15T03:06:06.398Z,98475.69
2022-11-15T03:09:17.482Z,98473.31
2022-11-15T03:12:31.480Z,98477.25
2022-11-15T03:15:30.604Z,98483.31
2022-11-15T03:18:28.447Z,98480.09
2022-11-15T03:21:17.794Z,98486.38
2022-11-15T03:24:09.888Z,98477.66
2022-11-15T03:26:58.465Z,98470.38
2022-11-15T03:29:59.021Z,98472.75
2022-11-15T03:32:56.995Z,98462.34
2022-11-15T03:35:46.031Z,98460.31
2022-11-15T03:38:34.986Z,98455.94
2022-11-15T03:41:31.520Z,98451.06
2022-11-15T03:44:35.797Z,98456.69
2022-11-15T03:47:38.033Z,98450.56
2022-11-15T03:50:25.555Z,98456.47
2022-11-15T03:53:13.269Z,98442.44
2022-11-15T03:55:59.705Z,98446.94
2022-11-15T03:58:45.623Z,98452.78
2022-11-15T04:01:32.128Z,98442.38
2022-11-15T04:04:18.563Z,98443.03
2022-11-15T04:07:05.081Z,98435.81
2022-11-15T04:10:03.181Z,98435.81
2022-11-15T04:12:49.181Z,98441.03
2022-11-15T04:15:36.238Z,98436.50
2022-11-15T04:18:22.879Z,98420.25
2022-11-15T04:21:28.615Z,98431.25
2022-11-15T04:24:15.052Z,98432.47
2022-11-15T04:27:02.043Z,98429.09
2022-11-15T04:29:48.729Z,98429.97
2022-11-15T04:32:35.488Z,98429.22
2022-11-15T04:35:22.104Z,98419.63
2022-11-15T04:38:10.873Z,98423.38
2022-11-15T04:41:04.395Z,98422.38
2022-11-15T04:43:50.651Z,98418.63
2022-11-15T04:46:36.992Z,98407.47
2022-11-15T04:49:23.122Z,98412.84
2022-11-15T04:52:09.680Z,98412.75
2022-11-15T04:54:56.061Z,98420.31
2022-11-15T04:57:48.710Z,98411.41
2022-11-15T05:00:34.761Z,98416.16
2022-11-15T05:03:39.347Z,98407.75
2022-11-15T05:06:25.928Z,98399.25
2022-11-15T05:09:14.135Z,98397.47
2022-11-15T05:12:00.967Z,98391.09
2022-11-15T05:14:47.081Z,98398.34
2022-11-15T05:17:33.301Z,98401.81
2022-11-15T05:20:19.319Z,98405.28
2022-11-15T05:23:06.015Z,98399.94
2022-11-15T05:25:52.581Z,98399.66
2022-11-15T05:28:39.702Z,98398.06
2022-11-15T05:31:28.067Z,98406.78
2022-11-15T05:34:14.638Z,98406.06
2022-11-15T05:37:01.438Z,98405.81
2022-11-15T05:39:47.489Z,98400.13
2022-11-15T05:42:34.028Z,98404.56
2022-11-15T05:45:26.521Z,98393.22
2022-11-15T05:48:14.458Z,98386.69
2022-11-15T05:51:02.464Z,98404.03
2022-11-15T05:53:50.072Z,98387.47
2022-11-15T05:56:36.416Z,98390.06
2022-11-15T05:59:22.822Z,98376.09
2022-11-15T06:02:09.161Z,98379.34
2022-11-15T06:04:55.189Z,98385.91
2022-11-15T06:07:41.092Z,98388.41
2022-11-15T06:10:27.930Z,98390.22
2022-11-15T06:13:14.438Z,98388.69
2022-11-15T06:16:01.345Z,98381.00
2022-11-15T06:18:47.663Z,98387.47
2022-11-15T06:21:34.106Z,98393.59
2022-11-15T06:24:20.506Z,98388.22
2022-11-15T06:27:06.887Z,98397.22
2022-11-15T06:29:53.315Z,98396.88
2022-11-15T06:32:39.518Z,98396.19
2022-11-15T06:35:28.750Z,98396.28
2022-11-15T06:38:14.882Z,98407.88
2022-11-15T06:41:06.096Z,98406.75
2022-11-15T06:43:52.305Z,98397.66
2022-11-15T06:46:38.383Z,98392.97
2022-11-15T06:49:24.738Z,98397.38
2022-11-15T06:52:10.895Z,98391.59
2022-11-15T06:54:57.280Z,98399.69
2022-11-15T06:57:53.648Z,98404.22
2022-11-15T07:00:40.382Z,98407.38
2022-11-15T07:03:27.141Z,98403.78
2022-11-15T07:06:13.485Z,98409.91
2022-11-15T07:08:59.781Z,98405.69
2022-11-15T07:11:46.217Z,98404.28
2022-11-15T07:14:32.281Z,98402.19
2022-11-15T07:17:18.499Z,98394.63
2022-11-15T07:20:05.057Z,98404.19
2022-11-15T07:22:51.710Z,98403.06
2022-11-15T07:26:03.342Z,98402.41
2022-11-15T07:28:50.062Z,98409.91
2022-11-15T07:31:36.437Z,98417.81
2022-11-15T07:34:22.417Z,98410.94
2022-11-15T07:37:09.185Z,98404.34
2022-11-15T07:39:55.533Z,98409.25
2022-11-15T07:42:54.241Z,98397.88
2022-11-15T07:45:45.150Z,98390.63
2022-11-15T07:48:43.494Z,98389.91
2022-11-15T07:51:30.633Z,98393.09
2022-11-15T07:54:16.895Z,98392.44
2022-11-15T07:57:10.899Z,98382.81
2022-11-15T07:59:57.159Z,98372.84
2022-11-15T08:02:43.800Z,98375.44
2022-11-15T08:05:30.054Z,98374.25
2022-11-15T08:08:16.879Z,98363.41
2022-11-15T08:11:04.199Z,98359.91
2022-11-15T08:13:50.239Z,98365.63
2022-11-15T08:16:36.464Z,98366.28
2022-11-15T08:19:22.860Z,98362.31
2022-11-15T08:22:09.546Z,98360.41
2022-11-15T08:24:56.060Z,98351.59
2022-11-15T08:27:42.522Z,98350.97
2022-11-15T08:30:31.030Z,98354.03
2022-11-15T08:33:17.329Z,98347.81
2022-11-15T08:36:04.245Z,98341.88
2022-11-15T08:38:50.701Z,98343.53
2022-11-15T08:41:39.075Z,98334.66
2022-11-15T08:44:26.526Z,98329.84
2022-11-15T08:47:14.575Z,98324.63
2022-11-15T08:50:00.813Z,98328.63
2022-11-15T08:52:46.765Z,98331.72
2022-11-15T08:55:33.386Z,98331.31
2022-11-15T08:58:20.152Z,98327.00
2022-11-15T09:01:07.335Z,98317.00
2022-11-15T09:03:53.707Z,98313.84
2022-11-15T09:06:43.181Z,98317.06
2022-11-15T09:09:29.982Z,98306.22
2022-11-15T09:12:16.331Z,98306.13
2022-11-15T09:15:03.241Z,98300.16
2022-11-15T09:17:49.291Z,98302.97
2022-11-15T09:20:35.713Z,98302.03
2022-11-15T09:23:22.194Z,98301.75
2022-11-15T09:26:09.023Z,98300.91
2022-11-15T09:28:55.388Z,98298.25
2022-11-15T09:31:42.108Z,98294.09
2022-11-15T09:34:29.184Z,98295.53
2022-11-15T09:37:15.129Z,98303.22
2022-11-15T09:40:01.918Z,98289.00
2022-11-15T09:43:54.108Z,98289.44
2022-11-15T09:47:17.099Z,98289.81
2022-11-15T09:50:17.126Z,98282.31
2022-11-15T09:52:46.744Z,98279.03
2022-11-15T09:55:22.646Z,98281.09
2022-11-15T09:58:12.163Z,98274.19
2022-11-15T10:00:47.986Z,98271.59
2022-11-15T10:03:34.706Z,98265.75
2022-11-15T10:06:06.143Z,98266.53
2022-11-15T10:08:47.753Z,98258.06
2022-11-15T10:11:39.459Z,98260.25
2022-11-15T10:14:30.026Z,98258.91
2022-11-15T10:18:13.662Z,98255.28
2022-11-15T10:20:50.622Z,98247.50
2022-11-15T10:23:23.300Z,98249.84
2022-11-15T10:25:58.404Z,98240.88
2022-11-15T10:28:31.782Z,98241.31
2022-11-15T10:31:02.074Z,98224.88
2022-11-15T10:33:36.605Z,98224.75
2022-11-15T10:36:10.690Z,98227.25
2022-11-15T10:38:50.309Z,98221.06
2022-11-15T10:41:33.492Z,98217.00
2022-11-15T10:44:33.264Z,98217.00
2022-11-15T10:47:03.503Z,98206.38
2022-11-15T10:49:33.948Z,98205.84
2022-11-15T10:52:21.514Z,98205.03
2022-11-15T10:55:06.504Z,98195.75
2022-11-15T10:57:38.823Z,98198.31
2022-11-15T11:00:31.209Z,98195.28
2022-11-15T11:03:02.757Z,98194.47
2022-11-15T11:05:42.599Z,98192.63
2022-11-15T11:08:14.149Z,98196.19
2022-11-15T11:11:00.179Z,98188.31
2022-11-15T11:13:40.380Z,98178.66
2022-11-15T11:16:23.056Z,98187.06
2022-11-15T11:19:35.437Z,98192.03
2022-11-15T11:22:11.740Z,98186.53
2022-11-15T11:25:10.193Z,98186.53
2022-11-15T11:28:14.842Z,98187.31
2022-11-15T11:31:19.619Z,98183.94
2022-11-15T11:34:37.716Z,98178.22
2022-11-15T11:38:14.626Z,98170.44
2022-11-15T11:41:30.941Z,98173.44
2022-11-15T11:44:47.703Z,98167.00
2022-11-15T11:47:34.746Z,98162.53
2022-11-15T11:50:29.551Z,98158.63
2022-11-15T11:53:46.855Z,98142.75
2022-11-15T11:56:40.771Z,98137.03
2022-11-15T11:59:34.560Z,98139.56
2022-11-15T12:02:22.494Z,98133.94
2022-11-15T12:04:54.303Z,98135.75
2022-11-15T12:07:27.598Z,98132.16
2022-11-15T12:10:15.235Z,98123.13
2022-11-15T12:12:56.898Z,98124.81
2022-11-15T12:15:34.130Z,98116.00
2022-11-15T12:18:02.671Z,98122.66
2022-11-15T12:20:41.759Z,98112.59
2022-11-15T12:23:15.025Z,98106.69
2022-11-15T12:25:58.197Z,98105.75
2022-11-15T12:29:10.280Z,98098.75
2022-11-15T12:31:46.974Z,98099.88
2022-11-15T12:34:20.476Z,98096.56
2022-11-15T12:36:50.641Z,98101.13
2022-11-15T12:39:19.496Z,98104.72
2022-11-15T12:42:32.696Z,98106.72
2022-11-15T12:45:00.550Z,98099.53
2022-11-15T12:47:29.237Z,98098.00
2022-11-15T12:49:57.106Z,98096.88
2022-11-15T12:52:24.858Z,98098.78
2022-11-15T12:54:59.369Z,98095.03
2022-11-15T12:57:39.541Z,98086.97
2022-11-15T13:00:29.952Z,98087.16
2022-11-15T13:03:24.372Z,98092.59
2022-11-15T13:05:59.981Z,98078.78
2022-11-15T13:08:44.955Z,98078.53
2022-11-15T13:11:52.539Z,98071.31
2022-11-15T13:14:38.581Z,98068.75
2022-11-15T13:17:21.129Z,98067.38
2022-11-15T13:20:17.087Z,98058.22
2022-11-15T13:23:05.324Z,98064.09
2022-11-15T13:25:50.332Z,98052.59
2022-11-15T13:28:24.311Z,98043.94
2022-11-15T13:30:58.608Z,98043.06
2022-11-15T13:33:37.514Z,98042.97
2022-11-15T13:36:23.380Z,98043.28
2022-11-15T13:39:05.537Z,98046.03
2022-11-15T13:41:37.463Z,98036.00
2022-11-15T13:44:20.823Z,98029.66
2022-11-15T13:46:48.397Z,98027.28
2022-11-15T13:49:16.103Z,98025.56
2022-11-15T13:51:52.957Z,98018.56
2022-11-15T13:54:46.522Z,98013.13
2022-11-15T13:57:29.752Z,98007.47
2022-11-15T14:00:04.178Z,98004.69
2022-11-15T14:02:39.783Z,97997.16
2022-11-15T14:05:23.668Z,97990.56
2022-11-15T14:08:02.179Z,97986.53
2022-11-15T14:10:37.241Z,97989.78
2022-11-15T14:13:26.797Z,97987.50
2022-11-15T14:15:54.526Z,97982.59
2022-11-15T14:18:45.881Z,97984.94
2022-11-15T14:21:13.940Z,97966.28
2022-11-15T14:23:47.384Z,97967.25
2022-11-15T14:26:34.132Z,97967.09
2022-11-15T14:29:24.325Z,97963.28
2022-11-15T14:31:53.010Z,97956.44
2022-11-15T14:34:23.080Z,97954.66
2022-11-15T14:36:50.714Z,97945.53
2022-11-15T14:39:18.279Z,97963.84
2022-11-15T14:41:45.856Z,97956.66
2022-11-15T14:44:13.504Z,97954.69
2022-11-15T14:46:41.030Z,97946.69
2022-11-15T14:49:27.212Z,97943.81
2022-11-15T14:51:54.841Z,97944.81
2022-11-15T14:54:22.407Z,97944.34
2022-11-15T14:56:50.578Z,97940.03
2022-11-15T14:59:18.618Z,97942.59
2022-11-15T15:01:46.190Z,97933.00
2022-11-15T15:04:13.803Z,97930.53
2022-11-15T15:06:41.405Z,97931.28
2022-11-15T15:09:15.708Z,97926.84
2022-11-15T15:11:43.525Z,97919.22
2022-11-15T15:14:11.367Z,97925.91
2022-11-15T15:16:39.062Z,97912.56
2022-11-15T15:19:06.612Z,97913.56
2022-11-15T15:21:37.499Z,97909.38
2022-11-15T15:24:05.789Z,97904.19
2022-11-15T15:26:37.424Z,97911.00
2022-11-15T15:29:05.983Z,97904.97
2022-11-15T15:31:34.055Z,97903.22
2022-11-15T15:34:02.146Z,97891.16
2022-11-15T15:36:29.720Z,97899.53
2022-11-15T15:38:57.375Z,97890.91
2022-11-15T15:41:25.718Z,97886.47
2022-11-15T15:43:53.592Z,97877.34
2022-11-15T15:46:21.842Z,97876.13
2022-11-15T15:48:49.532Z,97875.63
2022-11-15T15:51:20.515Z,97872.03
2022-11-15T15:53:49.261Z,97869.47
2022-11-15T15:56:17.378Z,97874.25
2022-11-15T15:58:45.549Z,97866.75
2022-11-15T16:01:13.753Z,97859.22
2022-11-15T16:03:41.636Z,97852.19
2022-11-15T16:06:39.273Z,97854.78
2022-11-15T16:09:14.987Z,97852.44
2022-11-15T16:11:46.792Z,97842.81
2022-11-15T16:14:14.709Z,97845.66
2022-11-15T16:16:42.530Z,97843.31
2022-11-15T16:19:11.988Z,97842.31
2022-11-15T16:21:39.556Z,97839.09
2022-11-15T16:24:07.155Z,97827.78
2022-11-15T16:26:37.864Z,97826.38
2022-11-15T16:29:07.925Z,97827.03
2022-11-15T16:31:35.867Z,97824.81
2022-11-15T16:34:03.481Z,97817.69
2022-11-15T16:36:36.182Z,97817.69
2022-11-15T16:39:05.045Z,97811.63
2022-11-15T16:41:33.392Z,97815.44
2022-11-15T16:44:01.081Z,97808.53
2022-11-15T16:46:30.009Z,97807.94
2022-11-15T16:48:58.455Z,97806.81
2022-11-15T16:51:26.373Z,97804.81
2022-11-15T16:53:54.027Z,97798.09
2022-11-15T16:56:31.038Z,97789.38
2022-11-15T16:59:01.374Z,97793.44
2022-11-15T17:01:33.848Z,97787.91
2022-11-15T17:04:17.556Z,97792.09
2022-11-15T17:06:47.618Z,97780.19
2022-11-15T17:09:26.207Z,97777.50
2022-11-15T17:11:54.270Z,97780.34
2022-11-15T17:14:21.914Z,97776.47
2022-11-15T17:16:49.497Z,97775.69
2022-11-15T17:19:20.036Z,97782.38
2022-11-15T17:21:51.485Z,97771.03
2022-11-15T17:24:21.044Z,97773.00
2022-11-15T17:26:49.084Z,97774.34
2022-11-15T17:29:18.693Z,97771.03
2022-11-15T17:31:46.594Z,97766.34
2022-11-15T17:34:14.141Z,97763.88
2022-11-15T17:36:41.700Z,97757.59
2022-11-15T17:39:09.269Z,97760.31
2022-11-15T17:41:37.397Z,97757.72
2022-11-15T17:44:05.591Z,97754.53
2022-11-15T17:46:34.021Z,97747.47
2022-11-15T17:49:02.073Z,97754.75
2022-11-15T17:51:29.801Z,97752.53
2022-11-15T17:53:57.543Z,97754.75
2022-11-15T17:56:29.775Z,97746.13
2022-11-15T17:59:01.137Z,97749.31
2022-11-15T18:01:32.513Z,97747.63
2022-11-15T18:04:02.858Z,97744.09
2022-11-15T18:06:33.700Z,97743.59
2022-11-15T18:09:03.785Z,97742.34
2022-11-15T18:11:38.487Z,97735.88
2022-11-15T18:14:13.247Z,97733.50
2022-11-15T18:16:41.265Z,97733.25
2022-11-15T18:19:13.186Z,97734.28
2022-11-15T18:21:56.314Z,97733.81
2022-11-15T18:24:26.484Z,97729.16
2022-11-15T18:27:00.603Z,97727.19
2022-11-15T18:29:29.329Z,97736.56
2022-11-15T18:31:58.656Z,97734.91
2022-11-15T18:34:32.025Z,97729.72
2022-11-15T18:37:02.545Z,97714.16
2022-11-15T18:39:30.499Z,97720.81
2022-11-15T18:41:59.271Z,97713.19
2022-11-15T18:44:30.298Z,97711.47
2022-11-15T18:46:58.606Z,97716.66
2022-11-15T18:49:26.336Z,97717.25
2022-11-15T18:51:54.147Z,97719.38
2022-11-15T18:54:24.512Z,97723.78
2022-11-15T18:56:55.969Z,97724.38
2022-11-15T18:59:23.717Z,97727.84
2022-11-15T19:01:52.213Z,97722.31
2022-11-15T19:04:21.040Z,97716.03
2022-11-15T19:06:50.216Z,97719.59
2022-11-15T19:09:19.354Z,97722.19
2022-11-15T19:11:51.296Z,97725.28
2022-11-15T19:14:24.207Z,97725.50
2022-11-15T19:16:53.060Z,97715.75
2022-11-15T19:19:23.787Z,97714.16
2022-11-15T19:21:52.791Z,97706.34
2022-11-15T19:24:22.600Z,97704.78
2022-11-15T19:26:51.327Z,97697.63
2022-11-15T19:29:20.076Z,97698.34
2022-11-15T19:31:48.821Z,97695.72
2022-11-15T19:34:18.019Z,97706.69
2022-11-15T19:36:46.052Z,97689.97
2022-11-15T19:39:15.229Z,97675.44
2022-11-15T19:41:44.890Z,97679.03
2022-11-15T19:44:16.680Z,97674.22
2022-11-15T19:46:44.922Z,97672.50
2022-11-15T19:49:12.924Z,97670.03
2022-11-15T19:51:42.622Z,97666.09
2022-11-15T19:54:11.069Z,97665.38
2022-11-15T19:56:40.229Z,97665.38
2022-11-15T19:59:11.414Z,97662.16
2022-11-15T20:01:39.729Z,97667.44
2022-11-15T20:04:10.151Z,97658.47
2022-11-15T20:07:02.806Z,97649.47
2022-11-15T20:09:30.833Z,97646.28
2022-11-15T20:11:58.929Z,97639.97
2022-11-15T20:14:26.520Z,97640.97
2022-11-15T20:16:54.696Z,97644.16
2022-11-15T20:19:22.505Z,97645.16
2022-11-15T20:21:50.262Z,97637.13
2022-11-15T20:24:18.036Z,97625.94
2022-11-15T20:26:47.120Z,97622.00
2022-11-15T20:29:15.370Z,97620.78
2022-11-15T20:31:43.365Z,97621.41
2022-11-15T20:34:11.588Z,97618.31
2022-11-15T20:36:39.140Z,97618.09
2022-11-15T20:39:06.788Z,97618.59
2022-11-15T20:41:34.534Z,97616.88
2022-11-15T20:44:03.297Z,97607.50
2022-11-15T20:46:31.267Z,97617.84
2022-11-15T20:48:58.846Z,97600.38
2022-11-15T20:51:26.447Z,97603.09
2022-11-15T20:53:54.272Z,97610.22
2022-11-15T20:56:23.464Z,97599.13
2022-11-15T20:58:51.543Z,97597.91
2022-11-15T21:01:23.798Z,97602.59
2022-11-15T21:03:53.731Z,97591.00
2022-11-15T21:06:23.097Z,97588.28
2022-11-15T21:09:13.147Z,97595.19
2022-11-15T21:12:02.275Z,97592.25
2022-11-15T21:14:30.392Z,97593.97
2022-11-15T21:16:58.243Z,97585.09
2022-11-15T21:19:28.973Z,97582.88
2022-11-15T21:22:03.748Z,97585.50
2022-11-15T21:24:32.197Z,97586.59
2022-11-15T21:27:00.854Z,97572.69
2022-11-15T21:29:36.465Z,97575.25
2022-11-15T21:32:09.288Z,97567.50
2022-11-15T21:34:37.519Z,97559.78
2022-11-15T21:37:06.552Z,97566.16
2022-11-15T21:39:34.374Z,97554.34
2022-11-15T21:44:54.440Z,97556.03
2022-11-15T21:47:22.064Z,97554.56
2022-11-15T21:49:51.584Z,97547.06
2022-11-15T21:52:19.195Z,97553.09
2022-11-15T21:54:46.795Z,97551.50
2022-11-15T21:57:14.618Z,97547.22
2022-11-15T22:00:02.172Z,97544.88
2022-11-15T22:02:32.100Z,97534.28
2022-11-15T22:04:59.719Z,97529.75
2022-11-15T22:07:27.425Z,97531.94
2022-11-15T22:09:55.089Z,97527.28
2022-11-15T22:12:27.037Z,97526.03
2022-11-15T22:14:57.289Z,97527.03
2022-11-15T22:17:45.152Z,97530.25
2022-11-15T22:20:37.731Z,97526.78
2022-11-15T22:23:02.214Z,97521.38
2022-11-15T22:25:30.755Z,97526.28
2022-11-15T22:27:58.453Z,97521.38
2022-11-15T22:30:26.577Z,97527.03
2022-11-15T22:32:54.495Z,97541.31
2022-11-15T22:35:22.128Z,97532.69
2022-11-15T22:37:49.842Z,97536.16
2022-11-15T22:40:17.771Z,97529.88
2022-11-15T22:42:45.996Z,97529.75
2022-11-15T22:45:14.248Z,97533.16
2022-11-15T22:47:41.917Z,97533.94
2022-11-15T22:50:09.983Z,97539.31
2022-11-15T22:52:37.615Z,97536.84
2022-11-15T22:55:06.189Z,97536.50
2022-11-15T22:57:33.861Z,97535.59
2022-11-15T23:00:04.944Z,97533.63
2022-11-15T23:02:32.791Z,97532.16
2022-11-15T23:05:00.400Z,97541.72
2022-11-15T23:07:28.671Z,97539.53
2022-11-15T23:10:16.408Z,97537.34
2022-11-15T23:13:02.380Z,97547.16
2022-11-15T23:15:50.346Z,97542.84
2022-11-15T23:18:19.364Z,97541.84
2022-11-15T23:20:47.124Z,97545.22
2022-11-15T23:23:14.844Z,97538.34
2022-11-15T23:25:47.957Z,97550.56
2022-11-15T23:28:15.824Z,97531.63
2022-11-15T23:31:02.070Z,97536.63
2022-11-15T23:33:55.631Z,97527.72
2022-11-15T23:36:24.197Z,97531.63
2022-11-15T23:38:52.212Z,97528.06
2022-11-15T23:41:23.693Z,97532.84
2022-11-15T23:43:52.793Z,97531.56
2022-11-15T23:46:20.916Z,97528.72
2022-11-15T23:48:48.607Z,97528.50
2022-11-15T23:51:16.359Z,97526.53
2022-11-15T23:53:46.189Z,97524.53
2022-11-15T23:56:16.803Z,97527.47
2022-11-15T23:58:46.091Z,97534.31
